Time;durP1;ratioP1;P1;durP2;ratioP2;P2;SDS_P1;SDS_P2;PMS_P1;PMS_P2;Temp;Humidity;BMP_temperature;BMP_pressure;BME280_temperature;BME280_humidity;BME280_pressure;Samples;Min_cycle;Max_cycle;Signal;HPM_P1;HPM_P2
2021/12/05 00:23:01;;;;;;;37.30;19.87;;;;;;;0.79;63.46;97521.08;2244360;79;21018;-81
2021/12/05 00:26:03;;;;;;;36.13;20.70;;;;;;;0.82;63.52;97522.45;2221684;79;21062;-81
2021/12/05 00:32:16;;;;;;;40.37;21.60;;;;;;;0.89;63.53;97542.80;2233975;79;20969;-81
2021/12/05 00:48:08;;;;;;;35.93;18.77;;;;;;;0.93;63.36;97515.08;2204118;79;21014;-81
2021/12/05 00:57:51;;;;;;;36.97;20.77;;;;;;;0.86;63.61;97496.44;2213176;79;21417;-81
2021/12/05 01:01:04;;;;;;;40.12;20.80;;;;;;;0.83;63.61;97507.49;2213592;79;21029;-83
2021/12/05 01:10:09;;;;;;;37.10;20.13;;;;;;;0.88;63.65;97521.38;2182501;79;21073;-82
2021/12/05 01:16:14;;;;;;;39.00;21.00;;;;;;;0.95;63.67;97541.69;2235492;78;21113;-82
2021/12/05 01:19:15;;;;;;;37.70;20.07;;;;;;;1.00;63.49;97540.53;2243402;79;20958;-82
2021/12/05 01:22:18;;;;;;;34.70;18.57;;;;;;;0.97;63.62;97538.75;2244412;79;21043;-82
2021/12/05 01:25:35;;;;;;;33.50;18.17;;;;;;;0.97;63.44;97543.02;2241356;79;21416;-82
2021/12/05 01:34:53;;;;;;;34.73;20.13;;;;;;;0.94;63.59;97555.36;2226484;79;21298;-82
2021/12/05 01:41:06;;;;;;;35.43;19.00;;;;;;;0.93;63.58;97560.91;2220558;79;20981;-82
2021/12/05 02:09:54;;;;;;;34.70;19.60;;;;;;;0.79;64.49;97522.77;2207787;79;21096;-81
2021/12/05 02:16:40;;;;;;;34.53;18.90;;;;;;;0.78;64.51;97518.05;2223549;79;21476;-81
2021/12/05 02:39:31;;;;;;;32.67;18.13;;;;;;;0.74;64.73;97486.69;2207020;79;21024;-81
2021/12/05 02:42:37;;;;;;;32.43;17.33;;;;;;;0.74;64.71;97499.94;2217635;79;21369;-80
2021/12/05 02:45:36;;;;;;;31.77;17.27;;;;;;;0.76;64.87;97500.86;2201688;79;21073;-81
2021/12/05 02:48:37;;;;;;;34.23;19.33;;;;;;;0.80;64.87;97499.70;2238545;79;20977;-80
2021/12/05 02:51:38;;;;;;;33.97;19.07;;;;;;;0.84;64.78;97509.23;2212762;79;21436;-81
2021/12/05 02:54:40;;;;;;;31.10;18.17;;;;;;;0.86;64.74;97519.14;2251138;79;20993;-82
2021/12/05 03:03:54;;;;;;;32.47;17.73;;;;;;;0.91;64.70;97518.89;2188738;79;21045;-82
2021/12/05 03:06:55;;;;;;;26.43;16.57;;;;;;;0.96;64.88;97519.02;2242242;79;21004;-81
2021/12/05 03:09:56;;;;;;;30.93;16.97;;;;;;;0.99;64.66;97519.10;2246801;79;21049;-80
2021/12/05 03:12:57;;;;;;;33.23;17.67;;;;;;;0.96;64.74;97522.88;2248076;79;21094;-81
2021/12/05 03:15:58;;;;;;;31.03;17.53;;;;;;;0.97;64.80;97519.47;2250139;78;21080;-81
2021/12/05 03:18:59;;;;;;;30.67;17.13;;;;;;;0.98;64.82;97513.51;2225390;79;20989;-80
2021/12/05 03:21:59;;;;;;;32.03;17.50;;;;;;;0.97;65.03;97495.48;2217958;79;21435;-81
2021/12/05 03:25:00;;;;;;;28.70;17.47;;;;;;;0.93;65.20;97497.09;2228096;79;20990;-81
2021/12/05 03:28:01;;;;;;;27.40;17.77;;;;;;;0.87;65.16;97495.64;2213447;79;21052;-80
2021/12/05 03:31:01;;;;;;;25.67;15.93;;;;;;;0.85;65.31;97501.11;2228168;78;20993;-80
2021/12/05 03:34:02;;;;;;;28.27;17.50;;;;;;;0.83;65.64;97496.34;2220804;79;21433;-80
2021/12/05 03:37:03;;;;;;;32.03;17.30;;;;;;;0.82;65.43;97507.45;2214497;79;21341;-80
2021/12/05 03:40:03;;;;;;;28.77;17.47;;;;;;;0.86;65.51;97510.15;2237545;79;20989;-80
2021/12/05 03:43:04;;;;;;;28.20;17.53;;;;;;;0.92;65.50;97513.34;2236238;78;21020;-81
2021/12/05 03:46:04;;;;;;;33.63;17.00;;;;;;;0.98;65.46;97507.08;2223586;79;21048;-81
2021/12/05 03:49:05;;;;;;;26.37;16.37;;;;;;;1.04;65.40;97501.24;2225042;79;21024;-80
2021/12/05 03:52:06;;;;;;;26.53;16.63;;;;;;;1.03;65.30;97502.07;2225791;79;20990;-80
2021/12/05 03:55:06;;;;;;;26.17;15.73;;;;;;;1.04;65.27;97511.11;2203974;78;20977;-80
2021/12/05 03:58:07;;;;;;;27.07;16.70;;;;;;;1.04;65.19;97514.96;2194943;79;21016;-81
2021/12/05 04:01:07;;;;;;;27.67;15.37;;;;;;;1.09;65.34;97511.23;2224678;79;20978;-80
2021/12/05 04:04:08;;;;;;;29.93;17.23;;;;;;;1.10;65.18;97507.42;2226647;78;20981;-80
2021/12/05 04:07:08;;;;;;;25.90;16.67;;;;;;;1.08;65.11;97503.94;2235533;79;21044;-81
2021/12/05 04:10:09;;;;;;;27.23;16.10;;;;;;;1.09;65.15;97509.53;2242804;78;20985;-80
2021/12/05 04:13:09;;;;;;;29.17;17.10;;;;;;;1.09;65.10;97513.39;2252688;79;21044;-80
2021/12/05 04:16:10;;;;;;;29.17;16.83;;;;;;;1.08;65.04;97502.66;2216638;79;20997;-81
2021/12/05 04:19:10;;;;;;;26.20;15.73;;;;;;;1.11;65.41;97505.30;2227271;79;21017;-81
2021/12/05 04:22:11;;;;;;;27.50;17.20;;;;;;;1.10;65.18;97502.70;2212983;79;20981;-81
2021/12/05 04:25:12;;;;;;;26.67;16.17;;;;;;;1.06;65.15;97504.31;2229511;79;20989;-81
2021/12/05 04:28:12;;;;;;;25.20;15.83;;;;;;;1.06;65.30;97509.86;2234914;79;21005;-81
2021/12/05 04:31:14;;;;;;;52.50;28.43;;;;;;;1.09;65.33;97508.25;2252850;79;21032;-80
2021/12/05 04:34:15;;;;;;;49.70;26.80;;;;;;;1.10;65.20;97512.56;2220372;79;21045;-81
2021/12/05 04:37:15;;;;;;;26.83;15.83;;;;;;;1.10;65.31;97509.13;2243350;79;21012;-81
2021/12/05 04:40:16;;;;;;;27.20;16.63;;;;;;;1.09;65.19;97509.53;2236584;79;21401;-81
2021/12/05 04:43:16;;;;;;;27.87;16.80;;;;;;;1.07;65.29;97510.32;2228253;78;20946;-82
2021/12/05 04:46:17;;;;;;;28.37;16.23;;;;;;;1.04;65.22;97503.40;2233688;79;20981;-82
2021/12/05 04:49:18;;;;;;;24.57;15.57;;;;;;;1.04;65.36;97506.38;2228422;79;20981;-81
2021/12/05 04:52:18;;;;;;;23.40;15.73;;;;;;;1.05;65.38;97505.55;2202593;79;21041;-81
2021/12/05 04:55:19;;;;;;;27.87;17.17;;;;;;;1.07;65.41;97505.18;2224071;79;21401;-81
2021/12/05 04:58:19;;;;;;;24.60;15.97;;;;;;;1.08;65.34;97509.08;2223296;79;21040;-82
2021/12/05 05:01:20;;;;;;;24.63;16.13;;;;;;;1.09;65.42;97511.23;2237740;79;21032;-82
2021/12/05 05:04:26;;;;;;;23.87;14.77;;;;;;;1.10;65.38;97515.55;2219409;78;20997;-81
2021/12/05 05:07:26;;;;;;;23.37;16.00;;;;;;;1.12;65.37;97508.75;2249278;79;21064;-81
2021/12/05 05:10:26;;;;;;;29.03;15.90;;;;;;;1.10;65.32;97513.84;2234246;79;21337;-80
2021/12/05 05:13:27;;;;;;;22.07;14.77;;;;;;;1.08;65.38;97515.50;2224379;79;20981;-80
2021/12/05 05:16:28;;;;;;;24.83;16.47;;;;;;;1.08;65.32;97509.08;2241127;79;21036;-80
2021/12/05 05:19:36;;;;;;;25.40;15.93;;;;;;;1.08;65.48;97512.93;2243102;79;21034;-80
2021/12/05 05:23:37;;;;;;;25.73;16.43;;;;;;;1.08;65.37;97515.50;2236059;79;21084;-80
2021/12/05 05:29:24;;;;;;;27.50;17.07;;;;;;;1.05;65.40;97519.27;2229954;79;21111;-81
2021/12/05 05:50:49;;;;;;;22.63;16.13;;;;;;;1.03;65.86;97545.34;2169196;79;21057;-83
2021/12/05 05:53:49;;;;;;;22.50;14.73;;;;;;;1.05;65.90;97546.25;2224371;79;20962;-81
2021/12/05 05:56:56;;;;;;;25.50;15.43;;;;;;;1.05;65.72;97546.67;2225734;79;21048;-85
2021/12/05 06:00:05;;;;;;;24.80;15.37;;;;;;;1.05;65.87;97547.54;2238877;79;21065;-83
2021/12/05 06:06:22;;;;;;;24.83;15.37;;;;;;;1.10;65.82;97551.11;2242057;78;21032;-83
2021/12/05 06:09:22;;;;;;;28.10;15.77;;;;;;;1.08;65.83;97563.05;2247635;79;21092;-83
2021/12/05 06:12:22;;;;;;;24.37;16.57;;;;;;;1.08;65.89;97555.34;2217810;79;20974;-83
2021/12/05 06:15:24;;;;;;;26.97;16.37;;;;;;;1.09;65.94;97555.79;2202364;79;20985;-83
2021/12/05 06:18:24;;;;;;;22.47;15.67;;;;;;;1.09;65.90;97559.64;2201769;79;21037;-83
2021/12/05 06:21:25;;;;;;;26.73;16.53;;;;;;;1.09;65.88;97563.91;2229022;79;21000;-82
2021/12/05 06:24:26;;;;;;;30.43;16.47;;;;;;;1.10;66.05;97563.95;2244338;78;21330;-84
2021/12/05 06:27:27;;;;;;;23.50;15.50;;;;;;;1.16;66.00;97569.27;2248288;79;21072;-82
2021/12/05 06:40:33;;;;;;;83.17;51.03;;;;;;;5.35;87.71;97573.11;2209921;79;21040;-82
2021/12/05 06:46:39;;;;;;;24.17;16.37;;;;;;;5.76;60.14;97574.87;2170250;79;21001;-82
2021/12/05 06:49:39;;;;;;;28.27;17.80;;;;;;;4.61;60.17;97581.99;2224476;79;21057;-83
2021/12/05 06:52:40;;;;;;;24.53;17.23;;;;;;;3.88;60.61;97587.20;2246105;79;21373;-80
2021/12/05 06:55:40;;;;;;;27.17;16.73;;;;;;;3.30;60.59;97593.39;2247324;78;20989;-81
2021/12/05 06:58:41;;;;;;;27.00;16.50;;;;;;;2.90;61.87;97598.13;2225528;79;21432;-81
2021/12/05 07:01:41;;;;;;;28.23;17.27;;;;;;;2.62;62.35;97603.50;2229446;79;21014;-82
2021/12/05 07:08:01;;;;;;;25.27;17.10;;;;;;;2.18;63.71;97604.16;2218225;79;21001;-81
2021/12/05 07:20:54;;;;;;;373.10;253.97;;;;;;;1.65;67.11;97619.89;2252017;79;21074;-85
2021/12/05 07:27:08;;;;;;;43.37;26.33;;;;;;;5.63;66.42;97609.25;2211452;78;21040;-79
2021/12/05 07:43:08;;;;;;;25.63;17.63;;;;;;;2.51;66.20;97625.98;2232934;79;21032;-81
2021/12/05 07:46:09;;;;;;;25.90;18.70;;;;;;;2.33;66.77;97629.41;2194798;79;21033;-80
2021/12/05 07:49:11;;;;;;;26.00;16.43;;;;;;;2.22;67.26;97630.43;2207321;79;21428;-81
2021/12/05 07:52:16;;;;;;;122.53;85.20;;;;;;;2.14;67.78;97628.08;2215437;79;20996;-84
2021/12/05 07:55:23;;;;;;;264.57;170.63;;;;;;;2.17;79.33;97637.59;2245139;79;21086;-80
2021/12/05 07:58:49;;;;;;;90.97;53.63;;;;;;;6.85;74.95;97620.80;2223885;79;21441;-81
2021/12/05 08:14:51;;;;;;;33.27;21.53;;;;;;;3.14;64.82;97621.86;2247519;79;21388;-79
2021/12/05 08:17:53;;;;;;;27.10;19.17;;;;;;;2.85;65.58;97625.51;2195279;79;21021;-78
2021/12/05 08:20:53;;;;;;;27.17;19.13;;;;;;;2.69;66.32;97629.86;2208691;79;21421;-79
2021/12/05 08:23:54;;;;;;;26.07;19.10;;;;;;;2.54;66.56;97635.08;2203439;79;20997;-78
2021/12/05 08:26:55;;;;;;;26.83;18.87;;;;;;;2.49;67.24;97635.39;2214296;79;21385;-79
2021/12/05 08:30:05;;;;;;;29.53;18.80;;;;;;;2.50;67.19;97636.26;2229295;79;21033;-80
2021/12/05 10:02:22;;;;;;;32.07;20.07;;;;;;;3.88;65.36;97641.42;2209691;79;21064;-80
2021/12/05 10:08:42;;;;;;;33.00;22.00;;;;;;;3.47;66.29;97633.33;2234693;79;21045;-80
2021/12/05 10:11:56;;;;;;;32.80;21.17;;;;;;;3.38;66.74;97632.23;2224487;79;21072;-81
2021/12/05 10:18:08;;;;;;;32.80;21.80;;;;;;;3.20;67.39;97626.27;2206847;79;20978;-81
2021/12/05 10:33:57;;;;;;;34.90;20.83;;;;;;;3.05;68.20;97630.69;2250227;78;21047;-80
2021/12/05 10:36:46;;;;;;;32.50;21.50;;;;;;;3.05;68.61;97621.66;2233676;79;21026;-80
2021/12/05 10:39:47;;;;;;;34.07;21.93;;;;;;;3.02;68.44;97619.44;2226630;78;20989;-80
2021/12/05 10:42:47;;;;;;;164.50;100.97;;;;;;;2.98;68.80;97617.21;2194456;79;21052;-79
2021/12/05 10:45:48;;;;;;;56.00;34.33;;;;;;;6.58;72.98;97601.59;2223128;79;21008;-80
2021/12/05 10:48:48;;;;;;;35.47;22.87;;;;;;;6.59;64.02;97601.16;2235846;79;20977;-79
2021/12/05 10:51:49;;;;;;;34.37;21.97;;;;;;;5.67;63.26;97605.84;2249291;78;20959;-79
2021/12/05 10:54:50;;;;;;;30.07;20.93;;;;;;;5.02;64.04;97610.60;2241444;79;20992;-80
2021/12/05 10:57:51;;;;;;;34.97;21.97;;;;;;;4.55;64.49;97612.48;2228470;78;20950;-80
2021/12/05 11:00:51;;;;;;;34.43;22.03;;;;;;;4.20;65.37;97617.05;2235915;79;21108;-80
2021/12/05 11:03:52;;;;;;;34.73;22.40;;;;;;;3.91;66.01;97622.98;2203138;79;21384;-79
2021/12/05 11:06:52;;;;;;;34.67;21.07;;;;;;;3.68;66.42;97624.27;2207221;78;20994;-80
2021/12/05 11:09:57;;;;;;;30.87;21.17;;;;;;;3.50;67.00;97628.23;2208606;79;21009;-80
2021/12/05 11:12:55;;;;;;;35.03;20.93;;;;;;;3.41;67.56;97634.88;2244449;79;21090;-79
2021/12/05 11:15:56;;;;;;;32.20;20.90;;;;;;;3.35;67.86;97634.75;2211018;78;20974;-79
2021/12/05 11:18:56;;;;;;;36.07;22.50;;;;;;;3.29;68.14;97642.36;2225245;79;20959;-79
2021/12/05 11:21:57;;;;;;;40.50;22.00;;;;;;;3.23;68.69;97640.94;2240025;78;20978;-79
2021/12/05 11:24:57;;;;;;;31.77;22.23;;;;;;;3.23;68.84;97646.10;2237019;79;21836;-79
2021/12/05 11:27:58;;;;;;;34.20;21.30;;;;;;;3.22;69.20;97652.97;2204790;78;21004;-79
2021/12/05 11:30:59;;;;;;;32.47;21.70;;;;;;;3.18;69.22;97653.32;2239872;79;21048;-79
2021/12/05 11:33:59;;;;;;;32.10;21.37;;;;;;;3.15;69.29;97650.67;2210288;78;21021;-78
2021/12/05 11:37:00;;;;;;;34.23;22.63;;;;;;;3.11;69.49;97646.70;2217131;79;20997;-79
2021/12/05 11:40:00;;;;;;;40.13;23.30;;;;;;;3.07;69.76;97652.22;2229689;79;21357;-79
2021/12/05 11:43:02;;;;;;;35.33;22.57;;;;;;;3.05;69.95;97661.63;2220159;79;21036;-78
2021/12/05 11:46:02;;;;;;;36.70;21.93;;;;;;;2.99;70.31;97664.48;2248269;79;21004;-80
2021/12/05 11:49:03;;;;;;;32.63;21.33;;;;;;;2.96;70.55;97667.86;2215823;79;20957;-79
2021/12/05 11:52:03;;;;;;;33.60;22.33;;;;;;;2.98;70.52;97673.05;2223722;79;20993;-79
2021/12/05 11:55:04;;;;;;;35.40;22.70;;;;;;;2.98;70.89;97664.91;2226963;79;21342;-79
2021/12/05 11:58:04;;;;;;;33.03;20.10;;;;;;;3.00;70.86;97665.80;2237188;78;21004;-82
2021/12/05 12:01:05;;;;;;;507.93;359.63;;;;;;;3.37;80.58;97663.61;2224208;79;21061;-80
2021/12/05 12:04:05;;;;;;;308.57;217.63;;;;;;;7.90;78.32;97656.45;2217968;78;21017;-80
2021/12/05 12:07:06;;;;;;;173.27;116.30;;;;;;;11.45;67.31;97649.70;2214508;79;21310;-81
2021/12/05 12:10:06;;;;;;;104.70;73.10;;;;;;;13.62;60.14;97649.19;2246814;79;21041;-82
2021/12/05 12:13:07;;;;;;;67.23;44.87;;;;;;;15.06;55.61;97638.63;2240594;78;21005;-82
2021/12/05 12:16:12;;;;;;;50.87;35.93;;;;;;;15.93;51.66;97647.73;2223141;79;20986;-81
2021/12/05 12:19:12;;;;;;;40.83;28.90;;;;;;;16.50;49.51;97653.52;2224572;79;20986;-83
2021/12/05 12:22:13;;;;;;;41.30;26.97;;;;;;;17.00;47.59;97644.95;2213772;79;21432;-83
2021/12/05 12:25:13;;;;;;;46.10;29.12;;;;;;;17.13;46.58;97637.91;2226595;79;21013;-81
2021/12/05 12:28:14;;;;;;;68.55;34.95;;;;;;;16.49;43.57;97633.81;2219143;78;21017;-81
2021/12/05 12:31:14;;;;;;;61.68;34.58;;;;;;;13.68;43.68;97647.76;2198419;79;21422;-82
2021/12/05 12:34:15;;;;;;;55.23;31.50;;;;;;;11.39;46.25;97645.84;2242719;79;21017;-81
2021/12/05 12:37:15;;;;;;;69.83;37.43;;;;;;;9.86;48.60;97652.98;2251531;78;20974;-81
2021/12/05 12:40:16;;;;;;;57.53;32.87;;;;;;;8.65;50.58;97652.30;2246038;78;21021;-81
2021/12/05 12:43:16;;;;;;;71.87;37.83;;;;;;;7.64;52.73;97658.48;2218250;78;21024;-80
2021/12/05 12:46:17;;;;;;;77.70;41.67;;;;;;;6.84;54.69;97656.67;2217741;79;20986;-80
2021/12/05 12:49:17;;;;;;;69.53;39.57;;;;;;;6.24;56.45;97668.25;2198229;79;21056;-82
2021/12/05 12:52:19;;;;;;;89.83;45.97;;;;;;;5.79;57.80;97670.71;2250763;79;21014;-82
2021/12/05 12:55:20;;;;;;;87.40;45.60;;;;;;;5.47;59.10;97672.91;2223309;79;20985;-83
2021/12/05 12:58:21;;;;;;;95.83;45.87;;;;;;;5.17;60.18;97678.91;2223745;79;21056;-81
2021/12/05 13:01:43;;;;;;;73.77;36.90;;;;;;;4.91;61.08;97675.52;2237376;79;21056;-82
2021/12/05 13:04:49;;;;;;;624.73;454.83;;;;;;;4.77;66.29;97675.31;2207932;79;21049;-82
2021/12/05 13:10:57;;;;;;;80.57;44.33;;;;;;;9.66;56.40;97665.22;2250315;78;21002;-80
2021/12/05 13:13:57;;;;;;;74.00;43.13;;;;;;;8.18;55.79;97666.06;2239404;79;20985;-81
2021/12/05 13:16:57;;;;;;;70.33;40.50;;;;;;;7.15;57.08;97675.95;2234426;79;20981;-80
2021/12/05 13:19:59;;;;;;;62.97;38.80;;;;;;;6.42;58.38;97677.92;2222333;78;20969;-80
2021/12/05 13:23:00;;;;;;;67.53;39.87;;;;;;;5.80;59.73;97675.04;2202192;79;21069;-80
2021/12/05 13:26:01;;;;;;;51.97;33.67;;;;;;;5.38;60.89;97676.66;2215883;79;20973;-80
2021/12/05 13:29:02;;;;;;;60.30;37.73;;;;;;;5.04;61.81;97684.34;2200680;79;21351;-80
2021/12/05 13:32:02;;;;;;;58.13;35.40;;;;;;;4.79;62.75;97690.42;2228963;79;21384;-80
2021/12/05 13:35:03;;;;;;;61.07;35.03;;;;;;;4.56;63.47;97691.76;2235103;79;20982;-80
2021/12/05 13:38:03;;;;;;;52.77;32.90;;;;;;;4.41;64.26;97691.07;2207307;79;20978;-80
2021/12/05 13:41:04;;;;;;;54.53;34.17;;;;;;;4.31;64.81;97696.89;2225040;78;21040;-81
2021/12/05 13:44:04;;;;;;;58.20;34.40;;;;;;;4.19;65.34;97699.25;2250264;79;21342;-80
2021/12/05 13:47:05;;;;;;;62.37;35.93;;;;;;;4.06;65.79;97696.86;2231903;78;20965;-80
2021/12/05 13:50:06;;;;;;;71.53;38.80;;;;;;;3.96;66.32;97688.91;2233960;79;21024;-80
2021/12/05 13:53:06;;;;;;;59.87;35.73;;;;;;;3.90;66.72;97695.24;2224662;79;20978;-80
2021/12/05 13:56:06;;;;;;;57.87;33.37;;;;;;;3.84;67.09;97694.28;2221004;79;20973;-80
2021/12/05 13:59:07;;;;;;;60.43;33.07;;;;;;;3.83;67.40;97692.55;2209297;79;20953;-81
2021/12/05 14:02:08;;;;;;;62.00;33.37;;;;;;;3.76;67.62;97697.13;2230231;79;21004;-81
2021/12/05 14:05:08;;;;;;;56.50;33.00;;;;;;;3.70;68.07;97694.84;2206570;79;20993;-80
2021/12/05 14:08:09;;;;;;;56.97;31.10;;;;;;;3.66;68.43;97700.37;2215303;79;20997;-81
2021/12/05 14:11:09;;;;;;;53.43;30.27;;;;;;;3.65;68.48;97701.63;2217272;79;21377;-80
2021/12/05 14:14:10;;;;;;;50.23;30.17;;;;;;;3.64;68.71;97704.63;2207613;79;21041;-80
2021/12/05 14:17:10;;;;;;;50.33;30.27;;;;;;;3.59;68.88;97700.20;2237453;79;21036;-81
2021/12/05 14:20:11;;;;;;;51.03;30.43;;;;;;;3.59;69.11;97713.11;2226614;79;20974;-81
2021/12/05 14:23:12;;;;;;;52.97;30.33;;;;;;;3.57;69.20;97710.50;2240417;79;21025;-80
2021/12/05 14:26:12;;;;;;;45.17;29.60;;;;;;;3.53;69.31;97715.14;2201005;78;21413;-80
2021/12/05 14:29:13;;;;;;;56.73;33.83;;;;;;;3.45;69.53;97719.23;2212574;79;20993;-80
2021/12/05 14:32:13;;;;;;;56.97;33.47;;;;;;;3.40;69.87;97726.88;2217787;79;21044;-80
2021/12/05 14:35:14;;;;;;;56.80;33.00;;;;;;;3.39;70.08;97721.68;2209697;79;21009;-81
2021/12/05 14:38:14;;;;;;;57.53;33.73;;;;;;;3.35;70.22;97727.19;2218545;79;21362;-82
2021/12/05 14:41:15;;;;;;;64.57;36.03;;;;;;;3.34;70.49;97732.31;2243264;79;21009;-81
2021/12/05 14:44:16;;;;;;;56.67;34.33;;;;;;;3.33;70.54;97737.02;2250030;79;21386;-81
2021/12/05 14:47:16;;;;;;;58.17;34.23;;;;;;;3.32;70.72;97740.44;2254691;79;21068;-81
2021/12/05 14:50:17;;;;;;;354.50;224.20;;;;;;;3.33;70.79;97743.47;2240089;78;21371;-81
2021/12/05 14:53:20;;;;;;;128.67;75.97;;;;;;;6.99;77.09;97727.73;2213687;78;21418;-80
2021/12/05 14:56:21;;;;;;;70.30;42.03;;;;;;;9.83;65.46;97714.25;2196942;79;21444;-80
2021/12/05 14:59:21;;;;;;;61.60;37.43;;;;;;;8.62;61.13;97719.49;2251415;79;21012;-80
2021/12/05 15:02:24;;;;;;;53.87;31.87;;;;;;;7.42;60.98;97731.94;2225837;78;21009;-80
2021/12/05 15:05:24;;;;;;;49.50;29.67;;;;;;;6.48;61.83;97733.28;2217532;79;21085;-81
2021/12/05 15:08:25;;;;;;;49.23;31.03;;;;;;;5.76;62.85;97739.30;2217431;79;20970;-81
2021/12/05 15:11:25;;;;;;;51.00;30.53;;;;;;;5.23;63.97;97739.83;2213702;78;21408;-80
2021/12/05 15:14:26;;;;;;;59.30;34.13;;;;;;;4.84;64.92;97743.50;2194944;79;21105;-81
2021/12/05 15:17:27;;;;;;;54.27;33.40;;;;;;;4.55;65.66;97746.00;2217104;79;21318;-81
2021/12/05 15:20:27;;;;;;;54.67;34.33;;;;;;;4.32;66.42;97750.30;2253472;78;20985;-81
2021/12/05 15:23:28;;;;;;;60.20;34.63;;;;;;;4.14;66.98;97751.23;2211705;79;20999;-81
2021/12/05 15:26:28;;;;;;;55.47;33.57;;;;;;;3.98;67.61;97748.77;2201927;79;20977;-83
2021/12/05 15:29:29;;;;;;;369.23;245.07;;;;;;;3.86;69.12;97752.81;2214450;79;21424;-82
2021/12/05 15:32:29;;;;;;;144.47;87.17;;;;;;;7.44;73.94;97741.91;2237785;79;21297;-82
2021/12/05 15:35:30;;;;;;;68.03;44.17;;;;;;;9.43;63.81;97731.67;2224240;79;21088;-82
2021/12/05 15:38:31;;;;;;;65.70;39.20;;;;;;;8.74;61.33;97741.22;2232130;79;21000;-82
2021/12/05 15:41:32;;;;;;;62.33;38.70;;;;;;;8.24;61.28;97744.07;2204903;78;21072;-82
2021/12/05 15:44:32;;;;;;;76.57;45.03;;;;;;;8.02;61.36;97747.45;2228199;79;20961;-79
2021/12/05 15:47:33;;;;;;;97.90;63.33;;;;;;;8.24;63.33;97757.50;2235876;78;21517;-83
2021/12/05 15:50:33;;;;;;;113.57;73.93;;;;;;;9.06;63.30;97759.03;2212466;79;20993;-80
2021/12/05 15:53:34;;;;;;;71.87;44.63;;;;;;;9.84;60.88;97761.16;2239222;78;20957;-81
2021/12/05 15:56:34;;;;;;;68.07;39.50;;;;;;;8.85;58.26;97762.48;2213894;79;21013;-81
2021/12/05 15:59:39;;;;;;;63.53;39.30;;;;;;;7.67;58.89;97783.17;2223923;79;21392;-80
2021/12/05 16:02:39;;;;;;;64.20;37.97;;;;;;;6.75;60.15;97776.77;2210067;79;21036;-81
2021/12/05 16:05:39;;;;;;;66.07;37.27;;;;;;;6.00;61.54;97775.03;2226883;79;21093;-79
2021/12/05 16:08:40;;;;;;;70.20;39.27;;;;;;;5.45;63.02;97775.53;2194532;79;20997;-80
2021/12/05 16:11:40;;;;;;;70.93;40.60;;;;;;;5.04;64.18;97781.33;2213657;79;21020;-80
2021/12/05 16:14:42;;;;;;;64.43;37.07;;;;;;;4.67;65.20;97791.03;2243313;78;21059;-79
2021/12/05 16:17:42;;;;;;;64.10;38.83;;;;;;;4.43;66.13;97794.03;2232843;79;21031;-80
2021/12/05 16:20:45;;;;;;;67.87;38.80;;;;;;;4.19;66.92;97797.40;2231202;79;21004;-80
2021/12/05 16:23:45;;;;;;;77.93;41.30;;;;;;;4.03;67.65;97808.25;2220034;79;21057;-79
2021/12/05 16:26:45;;;;;;;74.80;40.17;;;;;;;3.92;68.27;97808.03;2207303;79;20945;-80
2021/12/05 16:29:46;;;;;;;83.87;47.53;;;;;;;3.81;68.72;97812.09;2245907;79;21349;-83
2021/12/05 16:32:46;;;;;;;306.80;203.00;;;;;;;4.38;75.25;97805.99;2229433;78;21063;-84
2021/12/05 16:35:49;;;;;;;131.67;79.77;;;;;;;8.05;71.71;97795.97;2219557;79;21021;-80
2021/12/05 16:38:50;;;;;;;80.33;48.87;;;;;;;9.77;63.31;97788.53;2237026;79;21056;-80
2021/12/05 16:41:50;;;;;;;73.63;43.87;;;;;;;8.46;60.25;97784.48;2201384;79;21009;-80
2021/12/05 16:44:51;;;;;;;69.07;43.17;;;;;;;7.25;60.85;97782.44;2237570;79;21005;-80
2021/12/05 16:47:52;;;;;;;67.37;41.67;;;;;;;6.41;62.03;97779.87;2228092;79;21017;-81
2021/12/05 16:50:52;;;;;;;71.90;41.93;;;;;;;5.78;63.14;97788.09;2226835;79;20986;-81
2021/12/05 16:53:57;;;;;;;76.63;45.80;;;;;;;5.32;64.31;97791.72;2233574;79;20986;-81
2021/12/05 16:56:58;;;;;;;69.43;42.80;;;;;;;4.95;65.21;97796.27;2203501;79;21071;-81
2021/12/05 16:59:58;;;;;;;73.43;41.77;;;;;;;4.65;66.07;97795.72;2204011;79;21136;-82
2021/12/05 17:02:58;;;;;;;68.50;42.53;;;;;;;4.40;66.95;97796.56;2250093;79;21052;-81
2021/12/05 17:06:05;;;;;;;373.73;254.30;;;;;;;4.18;67.75;97798.23;2201128;79;21045;-82
2021/12/05 17:09:01;;;;;;;124.10;74.23;;;;;;;7.33;73.72;97796.78;2220355;79;20965;-80
2021/12/05 17:12:02;;;;;;;80.67;47.80;;;;;;;9.19;63.45;97795.05;2228098;78;21072;-80
2021/12/05 17:15:02;;;;;;;74.77;44.83;;;;;;;8.05;61.14;97805.07;2216547;79;21009;-81
2021/12/05 17:18:04;;;;;;;76.03;45.07;;;;;;;6.94;61.73;97807.25;2215945;79;21040;-80
2021/12/05 17:21:04;;;;;;;75.37;44.93;;;;;;;6.19;62.84;97817.62;2224273;79;21056;-80
2021/12/05 17:24:05;;;;;;;77.20;45.30;;;;;;;5.61;63.96;97818.92;2211784;78;21029;-80
2021/12/05 17:27:05;;;;;;;86.63;48.47;;;;;;;5.18;64.95;97830.28;2214648;79;21001;-81
2021/12/05 17:30:06;;;;;;;95.53;54.50;;;;;;;4.84;66.02;97841.75;2213780;79;21452;-80
2021/12/05 17:33:06;;;;;;;88.83;47.20;;;;;;;4.57;66.83;97845.11;2215063;79;21041;-80
2021/12/05 17:36:07;;;;;;;84.20;46.57;;;;;;;4.35;67.62;97843.81;2237871;79;20973;-80
2021/12/05 17:39:07;;;;;;;90.03;49.00;;;;;;;4.19;68.30;97841.73;2243816;79;21005;-80
2021/12/05 17:42:08;;;;;;;83.33;48.00;;;;;;;4.05;68.89;97842.73;2221815;79;21412;-79
2021/12/05 17:45:08;;;;;;;99.93;49.67;;;;;;;3.96;69.50;97837.37;2247054;79;20957;-80
2021/12/05 17:48:09;;;;;;;84.13;47.23;;;;;;;3.86;69.99;97842.75;2207482;78;20993;-80
2021/12/05 17:51:09;;;;;;;91.63;49.27;;;;;;;3.76;70.35;97833.94;2224008;79;20969;-77
2021/12/05 17:54:10;;;;;;;96.97;48.90;;;;;;;3.66;70.79;97830.69;2240464;79;21347;-82
2021/12/05 17:57:15;;;;;;;95.40;48.80;;;;;;;6.01;75.08;97821.67;2241536;79;20969;-81
2021/12/05 18:03:15;;;;;;;93.73;48.80;;;;;;;8.34;64.55;97826.03;2200683;79;21456;-79
2021/12/05 18:06:16;;;;;;;99.87;48.57;;;;;;;7.13;64.52;97839.44;2244953;79;21034;-80
2021/12/05 18:09:16;;;;;;;98.23;53.17;;;;;;;6.21;65.19;97842.70;2236847;79;21010;-79
2021/12/05 18:12:32;;;;;;;100.57;50.63;;;;;;;5.58;65.96;97844.77;2243847;79;21037;-80
2021/12/05 18:15:23;;;;;;;100.77;52.83;;;;;;;5.13;68.60;97848.73;2224143;79;21123;-79
2021/12/05 18:18:22;;;;;;;101.47;53.13;;;;;;;5.80;67.85;97842.49;2226204;79;21038;-79
2021/12/05 18:21:22;;;;;;;102.03;53.00;;;;;;;5.33;67.25;97842.63;2247132;78;20986;-78
2021/12/05 18:24:23;;;;;;;105.37;54.37;;;;;;;4.93;67.75;97853.97;2221440;79;21001;-79
2021/12/05 18:27:23;;;;;;;113.60;59.87;;;;;;;4.62;68.34;97859.00;2237012;78;21405;-79
2021/12/05 18:30:24;;;;;;;112.97;60.70;;;;;;;4.37;68.95;97860.22;2245546;79;21357;-79
2021/12/05 18:33:28;;;;;;;128.83;66.23;;;;;;;4.18;69.57;97854.19;2242781;78;21036;-79
2021/12/05 18:36:29;;;;;;;109.80;60.07;;;;;;;4.06;70.06;97851.80;2194574;79;20965;-79
2021/12/05 18:39:29;;;;;;;105.47;54.03;;;;;;;3.97;70.50;97861.06;2194782;79;20996;-79
2021/12/05 18:42:30;;;;;;;100.43;52.30;;;;;;;3.89;70.74;97856.14;2201046;79;20955;-80
2021/12/05 18:45:33;;;;;;;96.37;50.67;;;;;;;3.78;70.99;97864.52;2241647;79;21369;-80
2021/12/05 18:48:33;;;;;;;98.03;50.70;;;;;;;3.68;71.41;97869.02;2239679;79;21129;-80
2021/12/05 18:51:33;;;;;;;98.67;51.53;;;;;;;3.61;71.69;97863.68;2240448;79;20982;-78
2021/12/05 18:54:35;;;;;;;99.77;49.77;;;;;;;3.57;71.91;97865.31;2230579;78;21350;-79
2021/12/05 18:57:36;;;;;;;99.27;51.50;;;;;;;3.54;72.25;97876.86;2230491;79;20993;-78
2021/12/05 19:04:22;;;;;;;101.13;51.90;;;;;;;3.49;72.52;97873.30;2232560;78;21048;-79
2021/12/05 19:07:06;;;;;;;105.27;54.00;;;;;;;3.47;73.02;97876.26;2200001;79;21050;-80
2021/12/05 19:13:08;;;;;;;105.77;54.37;;;;;;;3.43;73.45;97884.73;2218179;79;21037;-79
2021/12/05 19:16:08;;;;;;;110.10;57.20;;;;;;;3.43;73.55;97886.02;2249330;78;20981;-79
2021/12/05 19:19:09;;;;;;;106.47;56.43;;;;;;;3.43;73.73;97891.17;2251298;78;21420;-79
2021/12/05 19:22:10;;;;;;;108.10;56.77;;;;;;;3.40;73.86;97899.71;2250077;79;21005;-79